Brooklyn, Indiana
Current Conditions -  °F | °C
As of 12:54 PM on Friday 21 Nov 2014 (Local Time) from KIND Reporting Station
Clear Clear  
Wind Chill: 19°   Ceiling: Unl
Heat Index: 29°   Visibility: 10mi
Dew Point: 10°   Wind: 12mph
Humidity: 45%   Direction: 150°SSE
Pressure: 30.45"   Gusts: NA
Location:  39.54°N, 86.37°W
Report Text: KIND 211754Z 15010KT 10SM CLR M02/M12 A3045 RMK AO2 SLP324 T10171122 11011 21111 58011
Loading
Personal Weather Stations






























Interactive Weather Map New forecast layout! Learn more

10-Day Weather Forecast

Advertisements
Track Severe Weather on mobile